Time;durP1;ratioP1;P1;durP2;ratioP2;P2;SDS_P1;SDS_P2;PMS_P1;PMS_P2;Temp;Humidity;BMP_temperature;BMP_pressure;BME280_temperature;BME280_humidity;BME280_pressure;Samples;Min_cycle;Max_cycle;Signal;HPM_P1;HPM_P2
2022/01/15 00:02:14;;;;;;;3.58;1.42;;;25.70;99.90;;;;;;5053750;28;20116;-71
2022/01/15 00:04:42;;;;;;;6.30;1.30;;;26.30;99.90;;;;;;5053581;28;20025;-71
2022/01/15 00:07:09;;;;;;;3.70;1.17;;;26.60;99.90;;;;;;5053536;28;20029;-71
2022/01/15 00:09:38;;;;;;;3.45;1.02;;;26.60;99.90;;;;;;5053397;28;20028;-72
2022/01/15 00:12:06;;;;;;;4.00;1.25;;;26.60;99.90;;;;;;5052195;28;20029;-73
2022/01/15 00:14:38;;;;;;;2.80;1.30;;;26.60;99.90;;;;;;5053585;28;20025;-73
2022/01/15 00:17:43;;;;;;;2.00;1.00;;;26.60;99.90;;;;;;5053556;28;20031;-72
2022/01/15 00:20:09;;;;;;;3.70;1.10;;;26.40;99.90;;;;;;5053076;28;20064;-72
2022/01/15 00:22:36;;;;;;;2.25;1.13;;;26.30;99.90;;;;;;5053369;28;20107;-72
2022/01/15 00:25:04;;;;;;;4.68;0.98;;;26.30;99.90;;;;;;5053530;28;20100;-72
2022/01/15 00:27:31;;;;;;;2.72;0.75;;;26.10;99.90;;;;;;5051331;28;20383;-72
2022/01/15 00:29:58;;;;;;;4.43;1.15;;;26.00;99.90;;;;;;5051822;28;20032;-72
2022/01/15 00:32:25;;;;;;;2.42;0.90;;;25.90;99.90;;;;;;5051794;28;20102;-72
2022/01/15 00:34:53;;;;;;;2.22;0.98;;;25.90;99.90;;;;;;5052513;28;20067;-72
2022/01/15 00:37:20;;;;;;;2.20;1.27;;;25.80;99.90;;;;;;5052758;28;20021;-72
2022/01/15 00:39:47;;;;;;;1.95;1.20;;;25.90;99.90;;;;;;5053453;28;20040;-72
2022/01/15 00:42:14;;;;;;;3.00;1.17;;;26.00;99.90;;;;;;5053279;28;20025;-72
2022/01/15 00:44:42;;;;;;;1.73;1.00;;;26.00;99.90;;;;;;5052283;28;20017;-73
2022/01/15 00:47:09;;;;;;;5.47;2.00;;;26.00;99.90;;;;;;5052749;28;20020;-72
2022/01/15 00:49:37;;;;;;;4.90;1.67;;;26.10;99.90;;;;;;5052188;28;20104;-72
2022/01/15 00:52:04;;;;;;;5.20;0.98;;;26.10;99.90;;;;;;5053087;28;20477;-73
2022/01/15 00:54:32;;;;;;;1.33;0.77;;;26.20;99.90;;;;;;5052462;28;20040;-73
2022/01/15 00:56:59;;;;;;;7.65;1.70;;;26.30;99.90;;;;;;5055737;28;20021;-72
2022/01/15 00:59:26;;;;;;;4.28;1.08;;;26.50;99.90;;;;;;5057155;28;20032;-72
2022/01/15 01:01:53;;;;;;;5.80;1.25;;;26.50;99.90;;;;;;5056976;28;20108;-74
2022/01/15 01:04:21;;;;;;;1.60;0.70;;;26.60;99.90;;;;;;5056595;28;20025;-71
2022/01/15 01:06:48;;;;;;;5.70;1.08;;;26.60;99.90;;;;;;5056753;28;20055;-72
2022/01/15 01:09:16;;;;;;;2.22;1.42;;;26.60;99.90;;;;;;5057068;28;20020;-73
2022/01/15 01:11:53;;;;;;;4.25;1.63;;;26.60;99.90;;;;;;5059889;28;20044;-74
2022/01/15 01:20:11;;;;;;;3.85;1.23;;;26.70;99.90;;;;;;5057036;28;20032;-75
2022/01/15 01:25:11;;;;;;;2.38;1.00;;;27.00;99.90;;;;;;5057593;28;20433;-73
2022/01/15 01:27:48;;;;;;;6.53;2.05;;;27.10;99.90;;;;;;5057594;28;20037;-73
2022/01/15 01:30:22;;;;;;;6.28;3.03;;;27.20;99.90;;;;;;5055367;28;20111;-72
2022/01/15 01:32:55;;;;;;;5.95;2.00;;;27.20;99.90;;;;;;5066441;28;20068;-72
2022/01/15 01:36:05;;;;;;;6.57;2.38;;;27.20;99.90;;;;;;5061243;28;20023;-72
2022/01/15 01:38:26;;;;;;;1.60;1.08;;;27.40;99.90;;;;;;5048019;28;20044;-72
2022/01/15 01:40:54;;;;;;;3.83;1.25;;;27.70;99.90;;;;;;5065198;28;20421;-71
2022/01/15 01:46:14;;;;;;;3.40;1.40;;;28.10;99.90;;;;;;5058246;28;20021;-73
2022/01/15 01:48:42;;;;;;;3.47;1.13;;;28.50;99.90;;;;;;5054185;28;20028;-74
2022/01/15 01:51:21;;;;;;;2.92;1.20;;;28.70;99.90;;;;;;5054155;28;20501;-75
2022/01/15 01:53:49;;;;;;;3.33;0.90;;;28.80;99.90;;;;;;5056500;28;20425;-73
2022/01/15 01:56:18;;;;;;;5.55;1.55;;;28.80;99.90;;;;;;5056431;28;20055;-73
2022/01/15 01:58:46;;;;;;;5.10;1.23;;;28.80;99.90;;;;;;5056376;28;20040;-74
2022/01/15 02:01:13;;;;;;;2.53;1.30;;;29.00;99.90;;;;;;5071293;28;20390;-74
2022/01/15 02:03:41;;;;;;;3.33;1.02;;;28.90;99.90;;;;;;5057218;28;20028;-73
2022/01/15 02:06:09;;;;;;;3.05;1.60;;;28.80;99.90;;;;;;5053609;28;20032;-76
2022/01/15 02:08:37;;;;;;;3.75;1.90;;;29.00;99.90;;;;;;5055467;28;20021;-73
2022/01/15 02:11:06;;;;;;;7.05;2.08;;;29.10;99.90;;;;;;5056265;28;20106;-75
2022/01/15 02:13:38;;;;;;;2.05;1.20;;;29.20;99.90;;;;;;5071774;28;20060;-75
2022/01/15 02:16:05;;;;;;;3.75;1.60;;;29.50;99.90;;;;;;5044042;28;20032;-73
2022/01/15 02:18:34;;;;;;;5.10;3.40;;;29.80;99.90;;;;;;5067793;28;20114;-73
2022/01/15 02:23:44;;;;;;;4.40;1.27;;;29.80;99.90;;;;;;5054347;28;20107;-76
2022/01/15 02:26:17;;;;;;;5.50;1.25;;;29.70;99.90;;;;;;5041673;28;20029;-74
2022/01/15 02:29:00;;;;;;;2.58;1.00;;;29.60;99.90;;;;;;5043008;28;20255;-73
2022/01/15 02:31:29;;;;;;;4.93;1.10;;;29.40;99.90;;;;;;5048371;28;20025;-75
2022/01/15 02:33:59;;;;;;;6.47;1.10;;;29.30;99.90;;;;;;5042068;28;20025;-74
2022/01/15 02:36:37;;;;;;;1.63;1.10;;;29.00;99.90;;;;;;5044362;28;20017;-73
2022/01/15 02:39:06;;;;;;;1.70;0.95;;;28.60;99.90;;;;;;5036277;28;20033;-72
2022/01/15 02:41:39;;;;;;;5.75;1.42;;;28.30;99.90;;;;;;5039858;28;20025;-74
2022/01/15 02:44:16;;;;;;;2.65;1.13;;;28.10;99.90;;;;;;5034509;28;20103;-75
2022/01/15 02:49:15;;;;;;;2.33;0.80;;;28.00;99.90;;;;;;5052672;28;20048;-74
2022/01/15 02:51:43;;;;;;;2.55;1.20;;;27.90;99.90;;;;;;5054475;28;20021;-74
2022/01/15 02:54:11;;;;;;;4.05;1.33;;;28.00;99.90;;;;;;5052047;28;20048;-73
2022/01/15 02:56:42;;;;;;;1.80;0.88;;;28.00;99.90;;;;;;5054357;28;20013;-73
2022/01/15 02:59:16;;;;;;;2.50;1.30;;;28.00;99.90;;;;;;5051836;28;20036;-73
2022/01/15 03:01:43;;;;;;;3.28;1.10;;;28.00;99.90;;;;;;5054023;28;20070;-74
2022/01/15 03:04:11;;;;;;;6.28;1.00;;;28.00;99.90;;;;;;5049624;28;20102;-74
2022/01/15 03:06:38;;;;;;;4.20;1.23;;;28.00;99.90;;;;;;5051518;28;20496;-74
2022/01/15 03:09:05;;;;;;;3.40;1.05;;;28.10;99.90;;;;;;5053680;28;20505;-74
2022/01/15 03:11:33;;;;;;;4.50;1.20;;;28.20;99.90;;;;;;5054070;28;20033;-72
2022/01/15 03:14:01;;;;;;;7.53;1.17;;;28.40;99.90;;;;;;5054183;28;20025;-73
2022/01/15 03:16:29;;;;;;;3.95;1.20;;;28.40;99.90;;;;;;5051106;28;20555;-73
2022/01/15 03:18:56;;;;;;;4.20;0.90;;;28.40;99.90;;;;;;5052806;28;20021;-72
2022/01/15 03:21:23;;;;;;;2.58;1.38;;;28.40;99.90;;;;;;5053849;28;20444;-73
2022/01/15 03:23:50;;;;;;;2.22;1.08;;;28.20;99.90;;;;;;5053639;28;20469;-75
2022/01/15 03:26:18;;;;;;;2.75;1.10;;;28.20;99.90;;;;;;5053707;28;20020;-74
2022/01/15 03:28:45;;;;;;;2.53;1.20;;;28.10;99.90;;;;;;5053172;28;20036;-75
2022/01/15 03:31:13;;;;;;;3.63;0.95;;;28.10;99.90;;;;;;5053721;28;20047;-74
2022/01/15 03:33:40;;;;;;;2.92;1.50;;;27.80;99.90;;;;;;5053495;28;20033;-73
2022/01/15 03:36:09;;;;;;;2.88;1.08;;;27.80;99.90;;;;;;5052345;28;20382;-72
2022/01/15 03:38:37;;;;;;;2.97;1.55;;;27.80;99.90;;;;;;5052618;28;20106;-73
2022/01/15 03:41:04;;;;;;;3.90;1.02;;;27.80;99.90;;;;;;5052864;28;20090;-74
2022/01/15 03:43:32;;;;;;;1.80;1.10;;;27.90;99.90;;;;;;5053197;28;20108;-74
2022/01/15 03:45:59;;;;;;;2.33;1.25;;;28.00;99.90;;;;;;5053664;28;20017;-74
2022/01/15 03:48:27;;;;;;;2.90;1.30;;;28.10;99.90;;;;;;5053107;28;20044;-74
2022/01/15 03:50:55;;;;;;;3.17;1.05;;;28.30;99.90;;;;;;5053173;28;20052;-72
2022/01/15 03:53:23;;;;;;;4.57;1.00;;;28.40;99.90;;;;;;5052985;28;20036;-74
2022/01/15 03:55:50;;;;;;;2.42;1.00;;;28.40;99.90;;;;;;5050575;28;20013;-74
2022/01/15 03:58:19;;;;;;;2.58;1.15;;;28.50;99.90;;;;;;5053334;28;20029;-71
2022/01/15 04:00:47;;;;;;;3.17;1.45;;;28.50;99.90;;;;;;5052777;28;20023;-70
2022/01/15 04:03:15;;;;;;;4.15;1.52;;;28.60;99.90;;;;;;5047452;28;20481;-72
2022/01/15 04:05:42;;;;;;;2.63;1.20;;;28.60;99.90;;;;;;5051260;28;20105;-74
2022/01/15 04:08:09;;;;;;;1.98;1.00;;;28.60;99.90;;;;;;5048343;28;20025;-73
2022/01/15 04:10:37;;;;;;;3.40;0.98;;;28.60;99.90;;;;;;5052819;28;20417;-73
2022/01/15 04:13:04;;;;;;;2.22;1.05;;;28.60;99.90;;;;;;5052362;28;20489;-74
2022/01/15 04:15:32;;;;;;;3.72;1.10;;;28.40;99.90;;;;;;5051435;28;20052;-74
2022/01/15 04:17:59;;;;;;;3.47;1.17;;;28.60;99.90;;;;;;5052492;28;20045;-74
2022/01/15 04:20:27;;;;;;;3.22;1.25;;;28.90;99.90;;;;;;5050051;28;20053;-74
2022/01/15 04:22:55;;;;;;;4.13;1.27;;;29.40;99.90;;;;;;5031345;28;20095;-72
2022/01/15 04:25:23;;;;;;;1.50;1.00;;;29.80;99.90;;;;;;5031397;28;20017;-74
2022/01/15 04:27:51;;;;;;;2.47;1.10;;;29.70;99.90;;;;;;5031167;28;20053;-74
2022/01/15 04:30:21;;;;;;;9.50;1.95;;;30.00;99.90;;;;;;5031255;28;20025;-75
2022/01/15 04:32:48;;;;;;;12.95;1.90;;;30.00;99.90;;;;;;5031366;28;20156;-74
2022/01/15 04:35:16;;;;;;;7.05;2.28;;;29.90;99.90;;;;;;5032302;28;20071;-73
2022/01/15 04:37:50;;;;;;;4.95;1.60;;;29.90;99.90;;;;;;5032807;28;20022;-74
2022/01/15 04:40:18;;;;;;;8.30;1.90;;;30.00;99.90;;;;;;5031668;28;20025;-74
2022/01/15 04:42:45;;;;;;;6.47;1.65;;;30.00;99.90;;;;;;5041790;28;20109;-75
2022/01/15 04:45:13;;;;;;;5.90;1.95;;;30.10;99.90;;;;;;5044882;28;20028;-75
2022/01/15 04:47:41;;;;;;;4.13;1.23;;;29.90;99.90;;;;;;5041860;28;20116;-74
2022/01/15 04:50:11;;;;;;;6.28;1.50;;;29.80;99.90;;;;;;5041208;28;20028;-74
2022/01/15 04:52:39;;;;;;;5.47;1.98;;;29.70;99.90;;;;;;5041338;28;20032;-74
2022/01/15 04:55:08;;;;;;;5.03;2.15;;;29.60;99.90;;;;;;5043360;28;20159;-74
2022/01/15 04:57:37;;;;;;;7.45;1.75;;;29.50;99.90;;;;;;5042921;28;20059;-75
2022/01/15 05:00:07;;;;;;;3.92;1.20;;;29.70;99.90;;;;;;5041777;28;20501;-74
2022/01/15 05:02:35;;;;;;;4.22;1.23;;;29.90;99.90;;;;;;5042783;28;20496;-73
2022/01/15 05:05:03;;;;;;;7.65;2.38;;;30.10;99.90;;;;;;5031720;28;20027;-74
2022/01/15 05:07:30;;;;;;;6.30;1.40;;;30.10;99.90;;;;;;5036691;28;20029;-73
2022/01/15 05:09:57;;;;;;;3.20;1.23;;;29.70;99.90;;;;;;5052410;28;20101;-73
2022/01/15 05:12:44;;;;;;;7.18;1.30;;;29.40;99.90;;;;;;5050635;28;20067;-74
2022/01/15 05:15:13;;;;;;;4.15;1.05;;;29.50;99.90;;;;;;5051210;28;20064;-73
2022/01/15 05:17:41;;;;;;;2.50;1.20;;;29.40;99.90;;;;;;5052871;28;20025;-73
2022/01/15 05:20:10;;;;;;;6.25;1.77;;;29.30;99.90;;;;;;5052424;28;20032;-73
2022/01/15 05:22:38;;;;;;;6.22;1.13;;;29.20;99.90;;;;;;5052996;28;20017;-74
2022/01/15 05:25:07;;;;;;;5.60;1.88;;;29.20;99.90;;;;;;5052522;28;20033;-74
2022/01/15 05:27:37;;;;;;;5.72;1.38;;;29.10;99.90;;;;;;5051739;28;20041;-74
2022/01/15 05:30:06;;;;;;;5.80;1.52;;;29.30;99.90;;;;;;5052407;28;20021;-76
2022/01/15 05:32:33;;;;;;;3.40;1.42;;;29.20;99.90;;;;;;5052495;28;20024;-74
2022/01/15 05:35:01;;;;;;;5.05;1.33;;;29.20;99.90;;;;;;5051544;28;20021;-75
2022/01/15 05:37:28;;;;;;;5.25;1.40;;;29.30;99.90;;;;;;5050963;28;20045;-74
2022/01/15 05:39:56;;;;;;;4.68;1.30;;;29.30;99.90;;;;;;5052177;28;20032;-74
2022/01/15 05:42:24;;;;;;;4.22;1.60;;;29.40;99.90;;;;;;5052884;28;20027;-74
2022/01/15 05:44:51;;;;;;;5.40;1.88;;;29.60;99.90;;;;;;5054485;28;20482;-74
2022/01/15 05:47:18;;;;;;;3.95;1.23;;;29.30;99.90;;;;;;5055992;28;20108;-74
2022/01/15 05:49:51;;;;;;;12.43;1.95;;;29.20;99.90;;;;;;5054734;28;20032;-74
2022/01/15 05:52:18;;;;;;;7.10;1.52;;;29.30;99.90;;;;;;5055068;28;20028;-76
2022/01/15 05:54:45;;;;;;;4.90;1.55;;;29.30;99.90;;;;;;5055347;28;20037;-75
2022/01/15 05:57:13;;;;;;;6.80;1.55;;;29.10;99.90;;;;;;5054622;28;20369;-74
2022/01/15 05:59:40;;;;;;;8.07;1.30;;;28.80;99.90;;;;;;5055520;28;20036;-75
2022/01/15 06:02:07;;;;;;;7.60;1.10;;;28.90;99.90;;;;;;5055447;28;20021;-74
2022/01/15 06:04:34;;;;;;;2.47;1.30;;;28.70;99.90;;;;;;5055548;28;20108;-75
2022/01/15 06:07:02;;;;;;;5.15;1.38;;;28.50;99.90;;;;;;5055738;28;20021;-74
2022/01/15 06:09:29;;;;;;;7.28;1.63;;;28.50;99.90;;;;;;5055662;28;20021;-75
2022/01/15 06:11:57;;;;;;;3.38;1.10;;;28.70;99.90;;;;;;5055788;28;20024;-75
2022/01/15 06:14:24;;;;;;;4.82;1.33;;;28.50;99.90;;;;;;5055739;28;20488;-74
2022/01/15 06:16:51;;;;;;;7.78;1.58;;;28.10;99.90;;;;;;5055145;28;20068;-75
2022/01/15 06:19:19;;;;;;;4.28;1.95;;;28.10;99.90;;;;;;5055550;28;20036;-75
2022/01/15 06:21:46;;;;;;;2.70;1.23;;;27.90;99.90;;;;;;5054896;28;20029;-74
2022/01/15 06:24:13;;;;;;;5.75;1.10;;;27.80;99.90;;;;;;5055452;28;20021;-75
2022/01/15 06:26:41;;;;;;;6.63;1.55;;;27.70;99.90;;;;;;5055027;28;20036;-74
2022/01/15 06:29:08;;;;;;;6.18;1.42;;;27.60;99.90;;;;;;5054534;28;20040;-75
2022/01/15 06:31:36;;;;;;;5.30;1.63;;;27.40;99.90;;;;;;5055050;28;20029;-74
2022/01/15 06:34:03;;;;;;;5.63;1.23;;;27.10;99.90;;;;;;5055372;28;20065;-74
2022/01/15 06:36:31;;;;;;;4.90;1.33;;;26.90;99.90;;;;;;5055435;28;20075;-75
2022/01/15 06:38:58;;;;;;;4.05;1.30;;;26.90;99.90;;;;;;5054002;28;20035;-76
2022/01/15 06:41:25;;;;;;;5.60;1.48;;;26.90;99.90;;;;;;5054766;28;20112;-74
2022/01/15 06:43:53;;;;;;;11.07;1.40;;;26.90;99.90;;;;;;5053820;28;20039;-76
2022/01/15 06:46:20;;;;;;;5.20;1.60;;;26.90;99.90;;;;;;5054526;28;20381;-75
2022/01/15 06:48:47;;;;;;;4.28;1.23;;;26.80;99.90;;;;;;5054533;28;20021;-74
2022/01/15 06:51:16;;;;;;;9.30;1.98;;;26.80;99.90;;;;;;5054239;28;20430;-75
2022/01/15 06:53:43;;;;;;;6.80;1.58;;;26.70;99.90;;;;;;5054715;28;20033;-74
2022/01/15 06:56:10;;;;;;;4.85;1.55;;;26.60;99.90;;;;;;5054967;28;20100;-75
2022/01/15 06:58:38;;;;;;;7.10;1.55;;;26.60;99.90;;;;;;5054783;28;20033;-75
2022/01/15 07:01:05;;;;;;;5.10;1.40;;;26.60;99.90;;;;;;5054880;28;20028;-75
2022/01/15 07:03:32;;;;;;;8.95;2.00;;;26.80;99.90;;;;;;5054850;28;20028;-73
2022/01/15 07:06:00;;;;;;;15.52;2.75;;;26.90;99.90;;;;;;5054175;28;20020;-74
2022/01/15 07:08:27;;;;;;;18.08;3.63;;;26.70;99.90;;;;;;5053514;28;20038;-72
2022/01/15 07:10:54;;;;;;;9.40;2.15;;;26.30;99.90;;;;;;5044165;28;20471;-72
2022/01/15 07:13:21;;;;;;;9.45;2.15;;;26.20;99.90;;;;;;5034562;28;20147;-74
2022/01/15 07:15:49;;;;;;;7.00;2.33;;;25.60;99.90;;;;;;5033287;28;20025;-72
2022/01/15 07:18:20;;;;;;;6.93;1.10;;;24.20;99.90;;;;;;5033989;28;20025;-72
2022/01/15 07:20:47;;;;;;;8.07;1.80;;;23.50;99.90;;;;;;5034614;28;20021;-73
2022/01/15 07:23:14;;;;;;;3.95;1.02;;;24.10;99.90;;;;;;5033514;28;20114;-72
2022/01/15 07:25:42;;;;;;;4.93;1.48;;;24.80;99.90;;;;;;5034578;28;20018;-74
2022/01/15 07:28:09;;;;;;;7.82;1.60;;;24.90;99.90;;;;;;5034015;28;20053;-76
2022/01/15 07:30:36;;;;;;;2.67;0.82;;;25.00;99.90;;;;;;5034437;28;20025;-75
2022/01/15 07:33:04;;;;;;;6.40;1.15;;;24.90;99.90;;;;;;5033322;28;20022;-74
2022/01/15 07:35:31;;;;;;;3.30;1.00;;;24.70;99.90;;;;;;5032892;28;20033;-74
2022/01/15 07:37:59;;;;;;;5.13;1.30;;;24.80;99.90;;;;;;5037329;28;20030;-75
2022/01/15 07:40:26;;;;;;;10.63;1.10;;;24.80;99.90;;;;;;5042814;28;20482;-74
2022/01/15 07:42:54;;;;;;;6.85;1.80;;;25.10;99.90;;;;;;5043965;28;20486;-73
2022/01/15 07:45:21;;;;;;;3.70;1.67;;;24.70;99.90;;;;;;5043134;28;20458;-72
2022/01/15 07:47:48;;;;;;;4.88;1.30;;;24.50;99.90;;;;;;5041767;28;20086;-73
2022/01/15 07:50:23;;;;;;;7.03;1.30;;;24.20;99.90;;;;;;5033399;28;20033;-74
2022/01/15 07:52:56;;;;;;;3.80;1.65;;;24.20;99.90;;;;;;5031294;28;20557;-74
2022/01/15 07:55:24;;;;;;;11.05;2.17;;;24.10;99.90;;;;;;5044409;28;20033;-74
2022/01/15 07:57:52;;;;;;;5.15;2.17;;;24.10;99.90;;;;;;5031406;28;20024;-74
2022/01/15 08:00:20;;;;;;;9.38;2.42;;;24.10;99.90;;;;;;5039211;28;20087;-73
2022/01/15 08:02:47;;;;;;;6.72;2.15;;;24.20;99.90;;;;;;5049018;28;20031;-73
2022/01/15 08:05:19;;;;;;;12.20;2.17;;;24.40;99.90;;;;;;5050158;28;20020;-73
2022/01/15 08:07:47;;;;;;;6.15;1.95;;;24.40;99.90;;;;;;5051529;28;20021;-73
2022/01/15 08:10:15;;;;;;;5.38;1.80;;;24.40;99.90;;;;;;5055320;28;20103;-73
2022/01/15 08:12:49;;;;;;;6.53;1.83;;;24.40;99.90;;;;;;5054155;28;20115;-73
2022/01/15 08:15:18;;;;;;;8.10;1.80;;;24.30;99.90;;;;;;5053323;28;20025;-73
2022/01/15 08:17:46;;;;;;;6.90;2.03;;;24.10;99.90;;;;;;5053057;28;20060;-73
2022/01/15 08:20:15;;;;;;;10.18;1.75;;;23.90;99.90;;;;;;5053707;28;20056;-73
2022/01/15 08:22:42;;;;;;;7.90;2.08;;;23.90;99.90;;;;;;5071258;28;20036;-73
2022/01/15 08:25:10;;;;;;;6.63;2.17;;;23.90;99.90;;;;;;5073176;28;20052;-73
2022/01/15 08:27:38;;;;;;;4.95;2.35;;;23.90;99.90;;;;;;5072452;28;20048;-74
2022/01/15 08:30:07;;;;;;;9.63;2.00;;;23.80;99.90;;;;;;5073486;28;20100;-73
2022/01/15 08:32:34;;;;;;;7.93;2.45;;;23.80;99.90;;;;;;5072127;28;20082;-73
2022/01/15 08:35:02;;;;;;;6.32;2.20;;;23.80;99.90;;;;;;5073487;28;20024;-73
2022/01/15 08:37:29;;;;;;;6.50;1.92;;;23.80;99.90;;;;;;5072701;28;20029;-74
2022/01/15 08:39:56;;;;;;;8.15;2.17;;;23.70;99.90;;;;;;5073111;28;20055;-73
2022/01/15 08:42:24;;;;;;;7.38;2.33;;;23.70;99.90;;;;;;5073356;28;20397;-74
2022/01/15 08:44:52;;;;;;;4.15;2.03;;;23.70;99.90;;;;;;5056344;28;20029;-73
2022/01/15 08:47:19;;;;;;;4.20;1.90;;;23.60;99.90;;;;;;5052915;28;20625;-73
2022/01/15 08:49:47;;;;;;;12.57;2.28;;;23.50;99.90;;;;;;5053111;28;20089;-73
2022/01/15 08:52:14;;;;;;;4.72;1.65;;;23.50;99.90;;;;;;5053784;28;20022;-73
2022/01/15 08:54:41;;;;;;;9.70;2.10;;;23.30;99.90;;;;;;5051937;28;20075;-73
2022/01/15 08:57:09;;;;;;;8.00;1.98;;;23.20;99.90;;;;;;5057105;28;20021;-75
2022/01/15 08:59:36;;;;;;;5.40;1.67;;;23.20;99.90;;;;;;5050709;28;20390;-74
2022/01/15 09:02:04;;;;;;;6.28;1.60;;;23.00;99.90;;;;;;5051913;28;20124;-74
2022/01/15 09:04:31;;;;;;;6.78;1.90;;;22.90;99.90;;;;;;5051986;28;20550;-73
2022/01/15 09:06:59;;;;;;;6.90;1.98;;;22.90;99.90;;;;;;5052119;28;20036;-74
2022/01/15 09:09:26;;;;;;;12.90;1.88;;;22.80;99.90;;;;;;5052283;28;20036;-74
2022/01/15 09:11:53;;;;;;;6.03;1.75;;;22.70;99.90;;;;;;5052453;28;20043;-73
2022/01/15 09:14:21;;;;;;;6.78;1.70;;;22.70;99.90;;;;;;5052218;28;20029;-74
2022/01/15 09:16:48;;;;;;;4.03;1.63;;;22.60;99.90;;;;;;5052163;28;20020;-73
2022/01/15 09:19:15;;;;;;;8.20;2.10;;;22.60;99.90;;;;;;5056322;28;20056;-73
2022/01/15 09:21:42;;;;;;;6.75;2.08;;;22.50;99.90;;;;;;5053453;28;20028;-74
2022/01/15 09:24:10;;;;;;;6.60;2.08;;;22.40;99.90;;;;;;5056152;28;20386;-76
2022/01/15 09:27:02;;;;;;;4.68;1.50;;;22.40;99.90;;;;;;5056109;28;20393;-76
2022/01/15 09:32:15;;;;;;;4.75;1.60;;;22.30;99.90;;;;;;5055225;28;20044;-73
2022/01/15 09:34:42;;;;;;;5.13;1.85;;;22.30;99.90;;;;;;5053393;28;20063;-73
2022/01/15 09:37:09;;;;;;;6.90;1.75;;;22.30;99.90;;;;;;5056019;28;20528;-73
2022/01/15 09:39:37;;;;;;;3.88;1.60;;;22.30;99.90;;;;;;5055623;28;20037;-72
2022/01/15 09:42:05;;;;;;;6.63;1.85;;;22.20;99.90;;;;;;5056434;28;20494;-74
2022/01/15 09:44:34;;;;;;;3.53;1.30;;;22.20;99.90;;;;;;5054953;28;20092;-74
2022/01/15 09:47:02;;;;;;;5.88;1.77;;;22.20;99.90;;;;;;5054684;28;20382;-73
2022/01/15 09:49:31;;;;;;;9.05;1.67;;;22.20;99.90;;;;;;5053404;28;20025;-73
2022/01/15 09:51:58;;;;;;;8.02;2.45;;;22.10;99.90;;;;;;5055137;28;20024;-74
2022/01/15 09:54:26;;;;;;;4.75;1.38;;;22.10;99.90;;;;;;5055102;28;20032;-73
2022/01/15 09:56:53;;;;;;;2.55;1.25;;;22.00;99.90;;;;;;5055569;28;20103;-73
2022/01/15 09:59:21;;;;;;;6.07;1.30;;;22.00;99.90;;;;;;5053158;28;20021;-73
2022/01/15 10:01:48;;;;;;;6.50;1.75;;;22.00;99.90;;;;;;5055325;28;20013;-73
2022/01/15 10:04:16;;;;;;;5.68;2.22;;;22.00;99.90;;;;;;5055196;28;20497;-74
2022/01/15 10:07:08;;;;;;;6.75;2.00;;;21.90;99.90;;;;;;5055021;28;20052;-75
2022/01/15 10:09:36;;;;;;;5.90;2.10;;;21.90;99.90;;;;;;5055156;28;20149;-76
2022/01/15 10:12:04;;;;;;;6.53;1.70;;;21.90;99.90;;;;;;5055155;28;20021;-77
2022/01/15 10:14:33;;;;;;;8.32;1.50;;;21.90;99.90;;;;;;5054973;28;20107;-74
2022/01/15 10:17:03;;;;;;;3.63;1.77;;;21.90;99.90;;;;;;5054883;28;20035;-75
2022/01/15 10:19:32;;;;;;;4.28;1.52;;;21.90;99.90;;;;;;5046448;28;20063;-75
2022/01/15 10:22:11;;;;;;;4.53;1.95;;;21.90;99.90;;;;;;5045817;28;20033;-75
2022/01/15 10:24:41;;;;;;;4.55;1.58;;;21.90;99.90;;;;;;5054240;28;20017;-74
2022/01/15 10:27:23;;;;;;;5.43;1.48;;;21.90;99.90;;;;;;5047272;28;20128;-73
2022/01/15 10:30:17;;;;;;;4.85;1.65;;;21.90;99.90;;;;;;5052590;28;20032;-76
2022/01/15 10:33:09;;;;;;;5.25;1.50;;;21.90;99.90;;;;;;5052645;28;20040;-74
2022/01/15 10:35:44;;;;;;;11.27;1.55;;;21.90;99.90;;;;;;5054659;28;20039;-74
2022/01/15 10:38:16;;;;;;;9.45;1.35;;;21.90;99.90;;;;;;5054173;28;20024;-75
2022/01/15 10:40:47;;;;;;;11.38;1.70;;;21.90;99.90;;;;;;5052176;28;20017;-74
2022/01/15 10:43:30;;;;;;;3.47;1.42;;;21.90;99.90;;;;;;5054514;28;20470;-73
2022/01/15 10:46:02;;;;;;;4.40;1.55;;;21.90;99.90;;;;;;5054366;28;20438;-75
2022/01/15 10:48:38;;;;;;;4.55;1.70;;;21.80;99.90;;;;;;5054026;28;20020;-76
2022/01/15 10:51:06;;;;;;;;;;;21.80;99.90;;;;;;5054169;28;20033;-76
2022/01/15 10:53:47;;;;;;;4.93;1.73;;;21.80;99.90;;;;;;5054154;28;19913;-74
2022/01/15 10:56:17;;;;;;;4.38;1.48;;;21.80;99.90;;;;;;5054224;28;20040;-74
2022/01/15 10:58:46;;;;;;;5.00;1.80;;;21.80;99.90;;;;;;5053871;28;20017;-75
2022/01/15 11:01:25;;;;;;;9.20;1.73;;;21.80;99.90;;;;;;5051885;28;20118;-76
2022/01/15 11:03:52;;;;;;;5.80;1.20;;;21.70;99.90;;;;;;5034161;28;20064;-78
2022/01/15 11:06:38;;;;;;;8.77;1.35;;;21.70;99.90;;;;;;5036698;28;20047;-75
2022/01/15 11:09:06;;;;;;;7.47;1.77;;;21.70;99.90;;;;;;5053522;28;20036;-75
2022/01/15 11:11:33;;;;;;;2.78;1.95;;;21.60;99.90;;;;;;5053744;28;20469;-74
2022/01/15 11:14:01;;;;;;;7.85;1.67;;;21.60;99.90;;;;;;5053718;28;20033;-73
2022/01/15 11:16:28;;;;;;;3.80;2.05;;;21.60;99.90;;;;;;5041326;28;20084;-76
2022/01/15 11:18:57;;;;;;;3.17;1.65;;;21.60;99.90;;;;;;5033686;28;20479;-74
2022/01/15 11:21:26;;;;;;;3.00;1.48;;;21.60;99.90;;;;;;5050883;28;20131;-77
2022/01/15 11:23:56;;;;;;;3.70;1.70;;;21.50;99.90;;;;;;5052009;28;20017;-75
2022/01/15 11:26:29;;;;;;;4.72;1.60;;;21.60;99.90;;;;;;5051134;28;20418;-76
2022/01/15 11:28:58;;;;;;;2.97;1.23;;;21.60;99.90;;;;;;5052875;28;20049;-76
2022/01/15 11:31:33;;;;;;;6.28;1.75;;;21.60;99.90;;;;;;5051710;28;20031;-76
2022/01/15 11:34:03;;;;;;;2.85;1.23;;;21.60;99.90;;;;;;5052705;28;20036;-76
2022/01/15 11:36:44;;;;;;;3.53;1.30;;;21.60;99.90;;;;;;5053009;28;20056;-76
2022/01/15 11:39:13;;;;;;;9.27;2.17;;;21.60;99.90;;;;;;5051874;28;20025;-74
2022/01/15 11:41:49;;;;;;;9.00;2.17;;;21.70;99.90;;;;;;5052202;28;20103;-78
2022/01/15 11:44:39;;;;;;;4.95;1.85;;;21.60;99.90;;;;;;5052949;28;20523;-73
2022/01/15 11:47:26;;;;;;;6.95;1.85;;;21.60;99.90;;;;;;5053864;28;20465;-76
2022/01/15 11:49:57;;;;;;;4.47;1.75;;;21.60;99.90;;;;;;5053723;28;20082;-73
2022/01/15 11:52:24;;;;;;;6.78;2.00;;;21.60;99.90;;;;;;5053853;28;20044;-74
2022/01/15 11:54:52;;;;;;;2.95;1.42;;;21.60;99.90;;;;;;5053723;28;20075;-74
2022/01/15 11:57:22;;;;;;;6.82;1.80;;;21.60;99.90;;;;;;5053577;28;20031;-74
2022/01/15 11:59:51;;;;;;;5.00;1.30;;;21.50;99.90;;;;;;5053596;28;20086;-73
2022/01/15 12:02:30;;;;;;;2.08;1.00;;;21.50;99.90;;;;;;5053631;28;20100;-73
2022/01/15 12:05:16;;;;;;;7.43;1.38;;;21.50;99.90;;;;;;5053659;28;20020;-74
2022/01/15 12:07:44;;;;;;;4.53;1.45;;;21.40;99.90;;;;;;5052631;28;20021;-75
2022/01/15 12:10:19;;;;;;;8.70;1.63;;;21.50;99.90;;;;;;5053622;28;20021;-74
2022/01/15 12:12:51;;;;;;;3.38;1.45;;;21.50;99.90;;;;;;5053512;28;20371;-74
2022/01/15 12:15:27;;;;;;;6.85;1.88;;;21.40;99.90;;;;;;5054382;28;20104;-74
2022/01/15 12:18:00;;;;;;;3.17;1.75;;;21.40;99.90;;;;;;5053474;28;20048;-75
2022/01/15 12:20:27;;;;;;;3.00;1.20;;;21.40;99.90;;;;;;5053824;28;20028;-75
2022/01/15 12:22:57;;;;;;;7.00;2.00;;;21.30;99.90;;;;;;5053504;28;20078;-74
2022/01/15 12:25:27;;;;;;;9.23;1.48;;;21.30;99.90;;;;;;5053588;28;20500;-75
2022/01/15 12:28:03;;;;;;;5.10;1.75;;;21.30;99.90;;;;;;5053244;28;20117;-75
2022/01/15 12:30:41;;;;;;;5.70;1.63;;;21.30;99.90;;;;;;5053664;28;20021;-74
2022/01/15 12:33:12;;;;;;;4.65;1.42;;;21.30;99.90;;;;;;5053374;28;20397;-74
2022/01/15 12:35:51;;;;;;;6.90;1.88;;;21.20;99.90;;;;;;5053306;28;20029;-75
2022/01/15 12:38:29;;;;;;;5.20;1.73;;;21.20;99.90;;;;;;5053411;28;20021;-74
2022/01/15 12:41:06;;;;;;;8.43;1.40;;;21.30;99.90;;;;;;5054081;28;20116;-74
2022/01/15 12:43:40;;;;;;;4.40;1.98;;;21.20;99.90;;;;;;5053322;28;20028;-74
2022/01/15 12:46:17;;;;;;;5.72;1.83;;;21.20;99.90;;;;;;5053229;28;20017;-74
2022/01/15 12:48:46;;;;;;;3.75;1.75;;;21.20;99.90;;;;;;5052483;28;20037;-75
2022/01/15 12:51:22;;;;;;;6.38;1.67;;;21.20;99.90;;;;;;5054293;28;20024;-75
2022/01/15 12:53:54;;;;;;;8.10;1.42;;;21.10;99.90;;;;;;5057283;28;20037;-75
2022/01/15 12:56:21;;;;;;;2.38;1.20;;;21.00;99.90;;;;;;5057461;28;20017;-73
2022/01/15 12:58:53;;;;;;;6.95;1.50;;;21.00;99.90;;;;;;5057375;28;20032;-73
2022/01/15 13:01:30;;;;;;;2.65;1.08;;;21.00;99.90;;;;;;5057209;28;20535;-73
2022/01/15 13:03:57;;;;;;;3.63;1.27;;;20.90;99.90;;;;;;5057377;28;20064;-73
2022/01/15 13:06:30;;;;;;;2.53;1.05;;;20.90;99.90;;;;;;5057092;28;20374;-73
2022/01/15 13:08:59;;;;;;;5.93;1.45;;;20.90;99.90;;;;;;5057012;28;20021;-73
2022/01/15 13:11:28;;;;;;;7.22;1.65;;;20.80;99.90;;;;;;5057067;28;20024;-73
2022/01/15 13:14:02;;;;;;;3.47;0.98;;;20.80;99.90;;;;;;5057071;28;20134;-76
2022/01/15 13:16:31;;;;;;;4.93;1.27;;;20.80;99.90;;;;;;5057069;28;20028;-73
2022/01/15 13:19:02;;;;;;;5.53;1.13;;;20.80;99.90;;;;;;5055372;28;20091;-73